sensor_id;sensor_type;location;lat;lon;timestamp;temperature;humidity
52125;DHT22;38119;52.710;6.398;2023-09-19T00:01:33;14.90;99.90
52125;DHT22;38119;52.710;6.398;2023-09-19T00:03:58;14.90;99.90
52125;DHT22;38119;52.710;6.398;2023-09-19T00:06:24;14.90;99.90
52125;DHT22;38119;52.710;6.398;2023-09-19T00:08:52;14.90;99.90
52125;DHT22;38119;52.710;6.398;2023-09-19T00:11:18;14.90;99.90
52125;DHT22;38119;52.710;6.398;2023-09-19T00:13:43;14.90;99.90
52125;DHT22;38119;52.710;6.398;2023-09-19T00:16:10;14.80;99.90
52125;DHT22;38119;52.710;6.398;2023-09-19T00:18:39;14.90;99.90
52125;DHT22;38119;52.710;6.398;2023-09-19T00:21:05;14.80;99.90
52125;DHT22;38119;52.710;6.398;2023-09-19T00:23:30;14.80;99.90
52125;DHT22;38119;52.710;6.398;2023-09-19T00:25:59;14.80;99.90
52125;DHT22;38119;52.710;6.398;2023-09-19T00:28:26;14.70;99.90
52125;DHT22;38119;52.710;6.398;2023-09-19T00:30:52;14.70;99.90
52125;DHT22;38119;52.710;6.398;2023-09-19T00:33:18;14.70;99.90
52125;DHT22;38119;52.710;6.398;2023-09-19T00:35:51;14.70;99.90
52125;DHT22;38119;52.710;6.398;2023-09-19T00:38:18;14.70;99.90
52125;DHT22;38119;52.710;6.398;2023-09-19T00:40:47;14.70;99.90
52125;DHT22;38119;52.710;6.398;2023-09-19T00:43:13;14.70;99.90
52125;DHT22;38119;52.710;6.398;2023-09-19T00:45:42;14.60;99.90
52125;DHT22;38119;52.710;6.398;2023-09-19T00:48:09;14.60;99.90
52125;DHT22;38119;52.710;6.398;2023-09-19T00:50:35;14.60;99.90
52125;DHT22;38119;52.710;6.398;2023-09-19T00:53:02;14.60;99.90
52125;DHT22;38119;52.710;6.398;2023-09-19T00:55:34;14.50;99.90
52125;DHT22;38119;52.710;6.398;2023-09-19T00:58:00;14.60;99.90
52125;DHT22;38119;52.710;6.398;2023-09-19T01:00:25;14.60;99.90
52125;DHT22;38119;52.710;6.398;2023-09-19T01:02:51;14.60;99.90
52125;DHT22;38119;52.710;6.398;2023-09-19T01:05:17;14.60;99.90
52125;DHT22;38119;52.710;6.398;2023-09-19T01:07:44;14.50;99.90
52125;DHT22;38119;52.710;6.398;2023-09-19T01:10:14;14.50;99.90
52125;DHT22;38119;52.710;6.398;2023-09-19T01:21:36;14.50;99.90
52125;DHT22;38119;52.710;6.398;2023-09-19T01:32:04;14.40;99.90
52125;DHT22;38119;52.710;6.398;2023-09-19T01:34:51;14.40;99.90
52125;DHT22;38119;52.710;6.398;2023-09-19T01:37:19;14.30;99.90
52125;DHT22;38119;52.710;6.398;2023-09-19T01:40:03;14.30;99.90
52125;DHT22;38119;52.710;6.398;2023-09-19T01:42:49;14.30;99.90
52125;DHT22;38119;52.710;6.398;2023-09-19T01:50:55;14.20;99.90
52125;DHT22;38119;52.710;6.398;2023-09-19T01:53:27;14.20;99.90
52125;DHT22;38119;52.710;6.398;2023-09-19T01:55:57;14.20;99.90
52125;DHT22;38119;52.710;6.398;2023-09-19T01:58:42;14.10;99.90
52125;DHT22;38119;52.710;6.398;2023-09-19T02:01:12;14.10;99.90
52125;DHT22;38119;52.710;6.398;2023-09-19T02:03:41;14.10;99.90
52125;DHT22;38119;52.710;6.398;2023-09-19T02:06:16;14.20;99.90
52125;DHT22;38119;52.710;6.398;2023-09-19T02:08:44;14.10;99.90
52125;DHT22;38119;52.710;6.398;2023-09-19T02:11:11;14.10;99.90
52125;DHT22;38119;52.710;6.398;2023-09-19T02:13:37;14.10;99.90
52125;DHT22;38119;52.710;6.398;2023-09-19T02:16:03;14.10;99.90
52125;DHT22;38119;52.710;6.398;2023-09-19T02:18:30;14.00;99.90
52125;DHT22;38119;52.710;6.398;2023-09-19T02:20:56;14.00;99.90
52125;DHT22;38119;52.710;6.398;2023-09-19T02:23:24;14.00;99.90
52125;DHT22;38119;52.710;6.398;2023-09-19T02:25:53;14.00;99.90
52125;DHT22;38119;52.710;6.398;2023-09-19T02:28:19;14.00;99.90
52125;DHT22;38119;52.710;6.398;2023-09-19T02:30:48;14.00;99.90
52125;DHT22;38119;52.710;6.398;2023-09-19T02:33:14;14.00;99.90
52125;DHT22;38119;52.710;6.398;2023-09-19T02:35:40;13.90;99.90
52125;DHT22;38119;52.710;6.398;2023-09-19T02:38:06;13.90;99.90
52125;DHT22;38119;52.710;6.398;2023-09-19T02:40:33;13.90;99.90
52125;DHT22;38119;52.710;6.398;2023-09-19T02:43:01;13.90;99.90
52125;DHT22;38119;52.710;6.398;2023-09-19T02:45:27;13.90;99.90
52125;DHT22;38119;52.710;6.398;2023-09-19T02:47:53;13.90;99.90
52125;DHT22;38119;52.710;6.398;2023-09-19T02:50:20;13.90;99.90
52125;DHT22;38119;52.710;6.398;2023-09-19T02:52:46;13.90;99.90
52125;DHT22;38119;52.710;6.398;2023-09-19T02:55:14;13.80;99.90
52125;DHT22;38119;52.710;6.398;2023-09-19T02:57:50;13.80;99.90
52125;DHT22;38119;52.710;6.398;2023-09-19T03:00:17;13.80;99.90
52125;DHT22;38119;52.710;6.398;2023-09-19T03:02:50;13.80;99.90
52125;DHT22;38119;52.710;6.398;2023-09-19T03:05:18;13.80;99.90
52125;DHT22;38119;52.710;6.398;2023-09-19T03:07:44;13.80;99.90
52125;DHT22;38119;52.710;6.398;2023-09-19T03:10:12;13.80;99.90
52125;DHT22;38119;52.710;6.398;2023-09-19T03:12:41;13.80;99.90
52125;DHT22;38119;52.710;6.398;2023-09-19T03:15:08;13.80;99.90
52125;DHT22;38119;52.710;6.398;2023-09-19T03:17:34;13.80;99.90
52125;DHT22;38119;52.710;6.398;2023-09-19T03:20:00;13.80;99.90
52125;DHT22;38119;52.710;6.398;2023-09-19T03:22:27;13.80;99.90
52125;DHT22;38119;52.710;6.398;2023-09-19T03:24:52;13.90;99.90
52125;DHT22;38119;52.710;6.398;2023-09-19T03:27:18;13.90;99.90
52125;DHT22;38119;52.710;6.398;2023-09-19T03:29:44;13.90;99.90
52125;DHT22;38119;52.710;6.398;2023-09-19T03:32:09;14.00;99.90
52125;DHT22;38119;52.710;6.398;2023-09-19T03:34:39;13.90;99.90
52125;DHT22;38119;52.710;6.398;2023-09-19T03:37:09;14.00;99.90
52125;DHT22;38119;52.710;6.398;2023-09-19T03:39:35;14.00;99.90
52125;DHT22;38119;52.710;6.398;2023-09-19T03:42:01;14.00;99.90
52125;DHT22;38119;52.710;6.398;2023-09-19T03:44:30;14.10;99.90
52125;DHT22;38119;52.710;6.398;2023-09-19T03:46:56;14.00;99.90
52125;DHT22;38119;52.710;6.398;2023-09-19T03:49:22;14.10;99.90
52125;DHT22;38119;52.710;6.398;2023-09-19T03:51:48;14.10;99.90
52125;DHT22;38119;52.710;6.398;2023-09-19T03:54:14;14.10;99.90
52125;DHT22;38119;52.710;6.398;2023-09-19T03:56:40;14.10;99.90
52125;DHT22;38119;52.710;6.398;2023-09-19T03:59:05;14.10;99.90
52125;DHT22;38119;52.710;6.398;2023-09-19T04:01:31;14.10;99.90
52125;DHT22;38119;52.710;6.398;2023-09-19T04:03:59;14.10;99.90
52125;DHT22;38119;52.710;6.398;2023-09-19T04:06:36;14.20;99.90
52125;DHT22;38119;52.710;6.398;2023-09-19T04:09:04;14.20;99.90
52125;DHT22;38119;52.710;6.398;2023-09-19T04:11:32;14.20;99.90
52125;DHT22;38119;52.710;6.398;2023-09-19T04:13:58;14.10;99.90
52125;DHT22;38119;52.710;6.398;2023-09-19T04:16:24;14.10;99.90
52125;DHT22;38119;52.710;6.398;2023-09-19T04:18:50;14.10;99.90
52125;DHT22;38119;52.710;6.398;2023-09-19T04:21:16;14.10;99.90
52125;DHT22;38119;52.710;6.398;2023-09-19T04:23:41;14.10;99.90
52125;DHT22;38119;52.710;6.398;2023-09-19T04:26:08;14.10;99.90
52125;DHT22;38119;52.710;6.398;2023-09-19T04:28:34;14.00;99.90
52125;DHT22;38119;52.710;6.398;2023-09-19T04:31:00;14.00;99.90
52125;DHT22;38119;52.710;6.398;2023-09-19T04:33:26;14.00;99.90
52125;DHT22;38119;52.710;6.398;2023-09-19T04:35:55;14.00;99.90
52125;DHT22;38119;52.710;6.398;2023-09-19T04:38:21;14.00;99.90
52125;DHT22;38119;52.710;6.398;2023-09-19T04:40:47;13.90;99.90
52125;DHT22;38119;52.710;6.398;2023-09-19T04:43:13;13.90;99.90
52125;DHT22;38119;52.710;6.398;2023-09-19T04:45:39;13.90;99.90
52125;DHT22;38119;52.710;6.398;2023-09-19T04:48:05;13.80;99.90
52125;DHT22;38119;52.710;6.398;2023-09-19T04:50:34;13.90;99.90
52125;DHT22;38119;52.710;6.398;2023-09-19T04:53:00;13.90;99.90
52125;DHT22;38119;52.710;6.398;2023-09-19T04:55:26;13.80;99.90
52125;DHT22;38119;52.710;6.398;2023-09-19T04:57:52;13.80;99.90
52125;DHT22;38119;52.710;6.398;2023-09-19T05:00:22;13.80;99.90
52125;DHT22;38119;52.710;6.398;2023-09-19T05:02:50;13.80;99.90
52125;DHT22;38119;52.710;6.398;2023-09-19T05:05:17;13.80;99.90
52125;DHT22;38119;52.710;6.398;2023-09-19T05:07:45;13.80;99.90
52125;DHT22;38119;52.710;6.398;2023-09-19T05:10:11;13.80;99.90
52125;DHT22;38119;52.710;6.398;2023-09-19T05:12:37;13.80;99.90
52125;DHT22;38119;52.710;6.398;2023-09-19T05:15:03;13.80;99.90
52125;DHT22;38119;52.710;6.398;2023-09-19T05:17:30;13.70;99.90
52125;DHT22;38119;52.710;6.398;2023-09-19T05:19:57;13.70;99.90
52125;DHT22;38119;52.710;6.398;2023-09-19T05:22:23;13.70;99.90
52125;DHT22;38119;52.710;6.398;2023-09-19T05:24:50;13.70;99.90
52125;DHT22;38119;52.710;6.398;2023-09-19T05:27:16;13.60;99.90
52125;DHT22;38119;52.710;6.398;2023-09-19T05:29:45;13.60;99.90
52125;DHT22;38119;52.710;6.398;2023-09-19T05:32:11;13.60;99.90
52125;DHT22;38119;52.710;6.398;2023-09-19T05:34:37;13.60;99.90
52125;DHT22;38119;52.710;6.398;2023-09-19T05:37:03;13.60;99.90
52125;DHT22;38119;52.710;6.398;2023-09-19T05:39:30;13.60;99.90
52125;DHT22;38119;52.710;6.398;2023-09-19T05:41:56;13.50;99.90
52125;DHT22;38119;52.710;6.398;2023-09-19T05:44:22;13.50;99.90
52125;DHT22;38119;52.710;6.398;2023-09-19T05:46:48;13.50;99.90
52125;DHT22;38119;52.710;6.398;2023-09-19T05:49:15;13.50;99.90
52125;DHT22;38119;52.710;6.398;2023-09-19T05:51:41;13.20;99.90
52125;DHT22;38119;52.710;6.398;2023-09-19T05:54:06;13.40;99.90
52125;DHT22;38119;52.710;6.398;2023-09-19T05:56:32;13.50;99.90
52125;DHT22;38119;52.710;6.398;2023-09-19T05:58:57;13.40;99.90
52125;DHT22;38119;52.710;6.398;2023-09-19T06:01:23;13.40;99.90
52125;DHT22;38119;52.710;6.398;2023-09-19T06:03:49;13.50;99.90
52125;DHT22;38119;52.710;6.398;2023-09-19T06:06:14;13.50;99.90
52125;DHT22;38119;52.710;6.398;2023-09-19T06:08:40;13.50;99.90
52125;DHT22;38119;52.710;6.398;2023-09-19T06:11:05;13.50;99.90
52125;DHT22;38119;52.710;6.398;2023-09-19T06:13:32;13.60;99.90
52125;DHT22;38119;52.710;6.398;2023-09-19T06:15:59;13.60;99.90
52125;DHT22;38119;52.710;6.398;2023-09-19T06:18:28;13.60;99.90
52125;DHT22;38119;52.710;6.398;2023-09-19T06:20:55;13.70;99.90
52125;DHT22;38119;52.710;6.398;2023-09-19T06:23:21;13.70;99.90
52125;DHT22;38119;52.710;6.398;2023-09-19T06:25:48;13.80;99.90
52125;DHT22;38119;52.710;6.398;2023-09-19T06:28:13;13.80;99.90
52125;DHT22;38119;52.710;6.398;2023-09-19T06:30:40;13.80;99.90
52125;DHT22;38119;52.710;6.398;2023-09-19T06:33:05;13.80;99.90
52125;DHT22;38119;52.710;6.398;2023-09-19T06:35:33;13.80;99.90
52125;DHT22;38119;52.710;6.398;2023-09-19T06:38:02;13.80;99.90
52125;DHT22;38119;52.710;6.398;2023-09-19T06:40:28;13.70;99.90
52125;DHT22;38119;52.710;6.398;2023-09-19T06:42:56;13.70;99.90
52125;DHT22;38119;52.710;6.398;2023-09-19T06:45:22;13.80;99.90
52125;DHT22;38119;52.710;6.398;2023-09-19T06:47:51;13.80;99.90
52125;DHT22;38119;52.710;6.398;2023-09-19T06:50:21;13.80;99.90
52125;DHT22;38119;52.710;6.398;2023-09-19T06:52:52;13.80;99.90
52125;DHT22;38119;52.710;6.398;2023-09-19T06:55:19;13.90;99.90
52125;DHT22;38119;52.710;6.398;2023-09-19T06:57:46;13.90;99.90
52125;DHT22;38119;52.710;6.398;2023-09-19T07:00:12;14.00;99.90
52125;DHT22;38119;52.710;6.398;2023-09-19T07:03:00;14.00;99.90
52125;DHT22;38119;52.710;6.398;2023-09-19T07:05:29;14.00;99.90
52125;DHT22;38119;52.710;6.398;2023-09-19T07:07:56;14.00;99.90
52125;DHT22;38119;52.710;6.398;2023-09-19T07:10:27;14.10;99.90
52125;DHT22;38119;52.710;6.398;2023-09-19T07:12:57;14.20;99.90
52125;DHT22;38119;52.710;6.398;2023-09-19T07:15:24;14.20;99.90
52125;DHT22;38119;52.710;6.398;2023-09-19T07:17:54;14.20;99.90
52125;DHT22;38119;52.710;6.398;2023-09-19T07:20:22;14.20;99.90
52125;DHT22;38119;52.710;6.398;2023-09-19T07:22:49;14.30;99.90
52125;DHT22;38119;52.710;6.398;2023-09-19T07:25:16;14.40;99.90
52125;DHT22;38119;52.710;6.398;2023-09-19T07:27:42;14.30;99.90
52125;DHT22;38119;52.710;6.398;2023-09-19T07:30:08;14.50;99.90
52125;DHT22;38119;52.710;6.398;2023-09-19T07:32:35;14.50;99.90
52125;DHT22;38119;52.710;6.398;2023-09-19T07:35:02;14.60;99.90
52125;DHT22;38119;52.710;6.398;2023-09-19T07:37:30;14.60;99.90
52125;DHT22;38119;52.710;6.398;2023-09-19T07:39:59;14.70;99.90
52125;DHT22;38119;52.710;6.398;2023-09-19T07:42:26;14.70;99.90
52125;DHT22;38119;52.710;6.398;2023-09-19T07:44:52;14.70;99.90
52125;DHT22;38119;52.710;6.398;2023-09-19T07:47:20;14.80;99.90
52125;DHT22;38119;52.710;6.398;2023-09-19T07:49:47;14.80;99.90
52125;DHT22;38119;52.710;6.398;2023-09-19T07:52:13;14.80;99.90
52125;DHT22;38119;52.710;6.398;2023-09-19T07:54:39;14.90;99.90
52125;DHT22;38119;52.710;6.398;2023-09-19T07:57:07;14.90;99.90
52125;DHT22;38119;52.710;6.398;2023-09-19T07:59:32;14.90;99.90
52125;DHT22;38119;52.710;6.398;2023-09-19T08:01:58;15.00;99.90
52125;DHT22;38119;52.710;6.398;2023-09-19T08:04:24;15.10;99.90
52125;DHT22;38119;52.710;6.398;2023-09-19T08:06:51;15.20;99.90
52125;DHT22;38119;52.710;6.398;2023-09-19T08:09:17;15.20;99.90
52125;DHT22;38119;52.710;6.398;2023-09-19T08:11:47;15.20;99.90
52125;DHT22;38119;52.710;6.398;2023-09-19T08:14:13;15.30;99.90
52125;DHT22;38119;52.710;6.398;2023-09-19T08:16:40;15.30;99.90
52125;DHT22;38119;52.710;6.398;2023-09-19T08:19:05;15.30;99.90
52125;DHT22;38119;52.710;6.398;2023-09-19T08:21:31;15.30;99.90
52125;DHT22;38119;52.710;6.398;2023-09-19T08:23:57;15.30;99.90
52125;DHT22;38119;52.710;6.398;2023-09-19T08:26:23;15.30;99.90
52125;DHT22;38119;52.710;6.398;2023-09-19T08:28:50;15.40;99.90
52125;DHT22;38119;52.710;6.398;2023-09-19T08:31:17;15.40;99.90
52125;DHT22;38119;52.710;6.398;2023-09-19T08:33:43;15.50;99.90
52125;DHT22;38119;52.710;6.398;2023-09-19T08:36:16;15.50;99.90
52125;DHT22;38119;52.710;6.398;2023-09-19T08:38:42;15.60;99.90
52125;DHT22;38119;52.710;6.398;2023-09-19T08:41:08;15.60;99.90
52125;DHT22;38119;52.710;6.398;2023-09-19T08:43:35;15.70;99.90
52125;DHT22;38119;52.710;6.398;2023-09-19T08:46:10;15.70;99.90
52125;DHT22;38119;52.710;6.398;2023-09-19T08:48:46;15.80;99.90
52125;DHT22;38119;52.710;6.398;2023-09-19T08:51:41;15.80;99.90
52125;DHT22;38119;52.710;6.398;2023-09-19T08:54:22;15.90;99.90
52125;DHT22;38119;52.710;6.398;2023-09-19T08:56:53;15.80;99.90
52125;DHT22;38119;52.710;6.398;2023-09-19T08:59:22;16.00;99.90
52125;DHT22;38119;52.710;6.398;2023-09-19T09:01:53;16.00;99.90
52125;DHT22;38119;52.710;6.398;2023-09-19T09:06:53;16.10;99.90
52125;DHT22;38119;52.710;6.398;2023-09-19T09:09:20;16.20;99.90
52125;DHT22;38119;52.710;6.398;2023-09-19T09:11:48;16.30;99.90
52125;DHT22;38119;52.710;6.398;2023-09-19T09:14:16;16.40;99.90
52125;DHT22;38119;52.710;6.398;2023-09-19T09:16:42;16.50;99.90
52125;DHT22;38119;52.710;6.398;2023-09-19T09:19:08;16.50;99.90
52125;DHT22;38119;52.710;6.398;2023-09-19T09:21:33;16.60;99.90
52125;DHT22;38119;52.710;6.398;2023-09-19T09:24:58;16.70;99.90
52125;DHT22;38119;52.710;6.398;2023-09-19T09:27:26;16.80;99.90
52125;DHT22;38119;52.710;6.398;2023-09-19T09:29:52;16.90;99.90
52125;DHT22;38119;52.710;6.398;2023-09-19T09:32:28;16.90;99.90
52125;DHT22;38119;52.710;6.398;2023-09-19T09:35:07;17.00;99.90
52125;DHT22;38119;52.710;6.398;2023-09-19T09:37:36;17.10;99.90
52125;DHT22;38119;52.710;6.398;2023-09-19T09:40:04;17.10;99.90
52125;DHT22;38119;52.710;6.398;2023-09-19T09:42:42;17.20;99.90
52125;DHT22;38119;52.710;6.398;2023-09-19T09:45:19;17.30;99.90
52125;DHT22;38119;52.710;6.398;2023-09-19T09:47:54;17.40;99.90
52125;DHT22;38119;52.710;6.398;2023-09-19T09:50:35;17.50;99.90
52125;DHT22;38119;52.710;6.398;2023-09-19T09:53:31;17.60;99.90
52125;DHT22;38119;52.710;6.398;2023-09-19T09:56:09;17.70;99.90
52125;DHT22;38119;52.710;6.398;2023-09-19T10:01:03;17.70;99.90
52125;DHT22;38119;52.710;6.398;2023-09-19T10:03:41;17.80;99.90
52125;DHT22;38119;52.710;6.398;2023-09-19T10:06:11;17.80;99.90
52125;DHT22;38119;52.710;6.398;2023-09-19T10:09:02;17.80;99.90
52125;DHT22;38119;52.710;6.398;2023-09-19T10:11:44;17.90;99.90
52125;DHT22;38119;52.710;6.398;2023-09-19T10:14:15;17.90;99.90
52125;DHT22;38119;52.710;6.398;2023-09-19T10:16:49;17.90;99.90
52125;DHT22;38119;52.710;6.398;2023-09-19T10:20:15;18.00;99.90
52125;DHT22;38119;52.710;6.398;2023-09-19T10:22:16;18.10;99.90
52125;DHT22;38119;52.710;6.398;2023-09-19T10:24:47;18.10;99.90
52125;DHT22;38119;52.710;6.398;2023-09-19T10:27:13;18.10;99.90
52125;DHT22;38119;52.710;6.398;2023-09-19T10:29:41;18.00;99.90
52125;DHT22;38119;52.710;6.398;2023-09-19T10:32:07;17.90;99.90
52125;DHT22;38119;52.710;6.398;2023-09-19T10:34:36;17.90;99.90
52125;DHT22;38119;52.710;6.398;2023-09-19T10:37:02;17.90;99.90
52125;DHT22;38119;52.710;6.398;2023-09-19T10:39:32;18.00;99.90
52125;DHT22;38119;52.710;6.398;2023-09-19T10:42:02;18.00;99.90
52125;DHT22;38119;52.710;6.398;2023-09-19T10:44:32;18.10;99.90
52125;DHT22;38119;52.710;6.398;2023-09-19T10:46:58;18.10;99.90
52125;DHT22;38119;52.710;6.398;2023-09-19T10:49:25;18.10;99.90
52125;DHT22;38119;52.710;6.398;2023-09-19T10:51:57;18.00;99.90
52125;DHT22;38119;52.710;6.398;2023-09-19T10:54:27;17.90;99.90
52125;DHT22;38119;52.710;6.398;2023-09-19T10:56:54;17.80;99.90
52125;DHT22;38119;52.710;6.398;2023-09-19T10:59:24;17.80;99.90
52125;DHT22;38119;52.710;6.398;2023-09-19T11:01:54;17.90;99.90
52125;DHT22;38119;52.710;6.398;2023-09-19T11:04:33;17.90;99.90
52125;DHT22;38119;52.710;6.398;2023-09-19T11:07:05;17.90;99.90
52125;DHT22;38119;52.710;6.398;2023-09-19T11:09:52;17.90;99.90
52125;DHT22;38119;52.710;6.398;2023-09-19T11:14:56;17.90;99.90
52125;DHT22;38119;52.710;6.398;2023-09-19T11:30:35;18.60;99.90
52125;DHT22;38119;52.710;6.398;2023-09-19T11:33:22;18.60;99.90
52125;DHT22;38119;52.710;6.398;2023-09-19T11:36:10;18.60;99.90
52125;DHT22;38119;52.710;6.398;2023-09-19T11:46:30;18.50;99.90
52125;DHT22;38119;52.710;6.398;2023-09-19T11:49:05;18.40;99.90
52125;DHT22;38119;52.710;6.398;2023-09-19T11:51:40;18.40;99.90
52125;DHT22;38119;52.710;6.398;2023-09-19T11:54:11;18.30;99.90
52125;DHT22;38119;52.710;6.398;2023-09-19T11:56:51;18.30;99.90
52125;DHT22;38119;52.710;6.398;2023-09-19T11:59:20;18.30;99.90
52125;DHT22;38119;52.710;6.398;2023-09-19T12:01:51;18.40;99.90
52125;DHT22;38119;52.710;6.398;2023-09-19T12:04:43;18.30;99.90
52125;DHT22;38119;52.710;6.398;2023-09-19T12:07:11;18.30;99.90
52125;DHT22;38119;52.710;6.398;2023-09-19T12:09:42;18.30;99.90
52125;DHT22;38119;52.710;6.398;2023-09-19T12:12:10;18.30;99.90
52125;DHT22;38119;52.710;6.398;2023-09-19T12:14:38;18.20;99.90
52125;DHT22;38119;52.710;6.398;2023-09-19T12:17:06;18.20;99.90
52125;DHT22;38119;52.710;6.398;2023-09-19T12:19:32;18.20;99.90
52125;DHT22;38119;52.710;6.398;2023-09-19T12:21:59;18.20;99.90
52125;DHT22;38119;52.710;6.398;2023-09-19T12:24:29;18.10;99.90
52125;DHT22;38119;52.710;6.398;2023-09-19T12:27:00;18.00;99.90
52125;DHT22;38119;52.710;6.398;2023-09-19T12:29:30;18.00;99.90
52125;DHT22;38119;52.710;6.398;2023-09-19T12:31:59;18.10;99.90
52125;DHT22;38119;52.710;6.398;2023-09-19T12:34:32;18.10;99.90
52125;DHT22;38119;52.710;6.398;2023-09-19T12:37:11;18.20;99.90
52125;DHT22;38119;52.710;6.398;2023-09-19T12:39:53;18.30;99.90
52125;DHT22;38119;52.710;6.398;2023-09-19T12:42:39;18.30;99.90
52125;DHT22;38119;52.710;6.398;2023-09-19T12:45:07;18.30;99.90
52125;DHT22;38119;52.710;6.398;2023-09-19T12:47:35;18.30;99.90
52125;DHT22;38119;52.710;6.398;2023-09-19T12:50:13;18.40;99.90
52125;DHT22;38119;52.710;6.398;2023-09-19T12:52:52;18.40;99.90
52125;DHT22;38119;52.710;6.398;2023-09-19T12:55:27;18.40;99.90
52125;DHT22;38119;52.710;6.398;2023-09-19T12:58:11;18.40;99.90
52125;DHT22;38119;52.710;6.398;2023-09-19T13:00:42;18.40;99.90
52125;DHT22;38119;52.710;6.398;2023-09-19T13:03:15;18.30;99.90
52125;DHT22;38119;52.710;6.398;2023-09-19T13:06:02;18.20;99.90
52125;DHT22;38119;52.710;6.398;2023-09-19T13:08:30;18.20;99.90
52125;DHT22;38119;52.710;6.398;2023-09-19T13:11:12;18.20;99.90
52125;DHT22;38119;52.710;6.398;2023-09-19T13:13:47;18.20;99.90
52125;DHT22;38119;52.710;6.398;2023-09-19T13:16:15;18.10;99.90
52125;DHT22;38119;52.710;6.398;2023-09-19T13:18:49;18.10;99.90
52125;DHT22;38119;52.710;6.398;2023-09-19T13:21:17;18.20;99.90
52125;DHT22;38119;52.710;6.398;2023-09-19T13:23:54;18.10;99.90
52125;DHT22;38119;52.710;6.398;2023-09-19T13:26:24;18.20;99.90
52125;DHT22;38119;52.710;6.398;2023-09-19T13:28:50;18.10;99.90
52125;DHT22;38119;52.710;6.398;2023-09-19T13:31:16;18.00;99.90
52125;DHT22;38119;52.710;6.398;2023-09-19T13:33:45;18.10;99.90
52125;DHT22;38119;52.710;6.398;2023-09-19T13:36:12;18.10;99.90
52125;DHT22;38119;52.710;6.398;2023-09-19T13:38:39;18.10;99.90
52125;DHT22;38119;52.710;6.398;2023-09-19T13:41:07;18.10;99.90
52125;DHT22;38119;52.710;6.398;2023-09-19T13:43:32;18.10;99.90
52125;DHT22;38119;52.710;6.398;2023-09-19T13:45:59;18.10;99.90
52125;DHT22;38119;52.710;6.398;2023-09-19T13:48:24;18.20;99.90
52125;DHT22;38119;52.710;6.398;2023-09-19T13:50:50;18.20;99.90
52125;DHT22;38119;52.710;6.398;2023-09-19T13:53:15;18.30;99.90
52125;DHT22;38119;52.710;6.398;2023-09-19T13:55:42;18.40;99.90
52125;DHT22;38119;52.710;6.398;2023-09-19T13:58:08;18.40;99.90
52125;DHT22;38119;52.710;6.398;2023-09-19T14:00:36;18.40;99.90
52125;DHT22;38119;52.710;6.398;2023-09-19T14:03:02;18.40;99.90
52125;DHT22;38119;52.710;6.398;2023-09-19T14:05:29;18.40;99.90
52125;DHT22;38119;52.710;6.398;2023-09-19T14:07:55;18.50;99.90
52125;DHT22;38119;52.710;6.398;2023-09-19T14:10:21;18.50;99.90
52125;DHT22;38119;52.710;6.398;2023-09-19T14:12:47;18.50;99.90
52125;DHT22;38119;52.710;6.398;2023-09-19T14:15:13;18.50;99.90
52125;DHT22;38119;52.710;6.398;2023-09-19T14:17:39;18.50;99.90
52125;DHT22;38119;52.710;6.398;2023-09-19T14:20:08;18.50;99.90
52125;DHT22;38119;52.710;6.398;2023-09-19T14:22:36;18.50;99.90
52125;DHT22;38119;52.710;6.398;2023-09-19T14:25:02;18.50;99.90
52125;DHT22;38119;52.710;6.398;2023-09-19T14:27:29;18.40;99.90
52125;DHT22;38119;52.710;6.398;2023-09-19T14:29:55;18.40;99.90
52125;DHT22;38119;52.710;6.398;2023-09-19T14:32:22;18.40;99.90
52125;DHT22;38119;52.710;6.398;2023-09-19T14:34:48;18.40;99.90
52125;DHT22;38119;52.710;6.398;2023-09-19T14:37:13;18.30;99.90
52125;DHT22;38119;52.710;6.398;2023-09-19T14:39:40;18.30;99.90
52125;DHT22;38119;52.710;6.398;2023-09-19T14:42:06;18.30;99.90
52125;DHT22;38119;52.710;6.398;2023-09-19T14:44:31;18.30;99.90
52125;DHT22;38119;52.710;6.398;2023-09-19T14:46:58;18.30;99.90
52125;DHT22;38119;52.710;6.398;2023-09-19T14:49:24;18.20;99.90
52125;DHT22;38119;52.710;6.398;2023-09-19T14:51:50;18.20;99.90
52125;DHT22;38119;52.710;6.398;2023-09-19T14:54:17;18.20;99.90
52125;DHT22;38119;52.710;6.398;2023-09-19T14:56:44;18.30;99.90
52125;DHT22;38119;52.710;6.398;2023-09-19T14:59:10;18.20;99.90
52125;DHT22;38119;52.710;6.398;2023-09-19T15:01:41;18.20;99.90
52125;DHT22;38119;52.710;6.398;2023-09-19T15:04:08;18.30;99.90
52125;DHT22;38119;52.710;6.398;2023-09-19T15:06:34;18.30;99.90
52125;DHT22;38119;52.710;6.398;2023-09-19T15:08:59;18.20;99.90
52125;DHT22;38119;52.710;6.398;2023-09-19T15:11:26;18.30;99.90
52125;DHT22;38119;52.710;6.398;2023-09-19T15:13:52;18.30;99.90
52125;DHT22;38119;52.710;6.398;2023-09-19T15:16:19;18.30;99.90
52125;DHT22;38119;52.710;6.398;2023-09-19T15:18:45;18.20;99.90
52125;DHT22;38119;52.710;6.398;2023-09-19T15:21:13;18.40;99.90
52125;DHT22;38119;52.710;6.398;2023-09-19T15:23:41;18.20;99.90
52125;DHT22;38119;52.710;6.398;2023-09-19T15:26:08;18.20;99.90
52125;DHT22;38119;52.710;6.398;2023-09-19T15:28:34;18.20;99.90
52125;DHT22;38119;52.710;6.398;2023-09-19T15:31:05;18.20;99.90
52125;DHT22;38119;52.710;6.398;2023-09-19T15:33:32;18.20;99.90
52125;DHT22;38119;52.710;6.398;2023-09-19T15:36:11;18.20;99.90
52125;DHT22;38119;52.710;6.398;2023-09-19T15:39:03;18.20;99.90
52125;DHT22;38119;52.710;6.398;2023-09-19T15:41:30;18.20;99.90
52125;DHT22;38119;52.710;6.398;2023-09-19T15:43:57;18.20;99.90
52125;DHT22;38119;52.710;6.398;2023-09-19T15:46:24;18.20;99.90
52125;DHT22;38119;52.710;6.398;2023-09-19T15:48:52;18.20;99.90
52125;DHT22;38119;52.710;6.398;2023-09-19T15:51:18;18.20;99.90
52125;DHT22;38119;52.710;6.398;2023-09-19T15:53:45;18.10;99.90
52125;DHT22;38119;52.710;6.398;2023-09-19T15:56:12;18.20;99.90
52125;DHT22;38119;52.710;6.398;2023-09-19T15:58:44;18.20;99.90
52125;DHT22;38119;52.710;6.398;2023-09-19T16:01:14;18.20;99.90
52125;DHT22;38119;52.710;6.398;2023-09-19T16:03:43;18.20;99.90
52125;DHT22;38119;52.710;6.398;2023-09-19T16:06:10;18.20;99.90
52125;DHT22;38119;52.710;6.398;2023-09-19T16:08:44;18.10;99.90
52125;DHT22;38119;52.710;6.398;2023-09-19T16:11:10;18.20;99.90
52125;DHT22;38119;52.710;6.398;2023-09-19T16:13:37;18.10;99.90
52125;DHT22;38119;52.710;6.398;2023-09-19T16:16:04;18.00;99.90
52125;DHT22;38119;52.710;6.398;2023-09-19T16:18:30;18.00;99.90
52125;DHT22;38119;52.710;6.398;2023-09-19T16:21:05;18.00;99.90
52125;DHT22;38119;52.710;6.398;2023-09-19T16:23:33;17.90;99.90
52125;DHT22;38119;52.710;6.398;2023-09-19T16:26:06;17.90;99.90
52125;DHT22;38119;52.710;6.398;2023-09-19T16:28:33;17.90;99.90
52125;DHT22;38119;52.710;6.398;2023-09-19T16:31:00;17.80;99.90
52125;DHT22;38119;52.710;6.398;2023-09-19T16:33:31;17.80;99.90